Time;durP1;ratioP1;P1;durP2;ratioP2;P2;SDS_P1;SDS_P2;PMS_P1;PMS_P2;Temp;Humidity;BMP_temperature;BMP_pressure;BME280_temperature;BME280_humidity;BME280_pressure;Samples;Min_cycle;Max_cycle;Signal;HPM_P1;HPM_P2
2022/07/01 00:01:34;;;;;;;4.75;1.30;;;15.90;99.90;;;;;;4908667;29;20044;-75
2022/07/01 00:04:00;;;;;;;1.88;1.35;;;15.90;99.90;;;;;;4909389;29;20165;-75
2022/07/01 00:06:25;;;;;;;2.88;1.55;;;15.90;99.90;;;;;;4906555;29;20104;-76
2022/07/01 00:08:51;;;;;;;2.83;1.63;;;15.90;99.90;;;;;;4897982;29;20055;-75
2022/07/01 00:11:17;;;;;;;1.05;1.00;;;15.90;99.90;;;;;;4922942;28;20052;-75
2022/07/01 00:13:43;;;;;;;3.28;1.02;;;16.00;99.90;;;;;;4905556;29;20055;-75
2022/07/01 00:16:08;;;;;;;1.10;0.90;;;15.90;99.90;;;;;;4911258;29;20047;-75
2022/07/01 00:18:34;;;;;;;2.65;1.02;;;16.00;99.90;;;;;;4905598;29;20060;-75
2022/07/01 00:21:01;;;;;;;2.67;1.02;;;16.00;99.90;;;;;;4924137;28;20044;-75
2022/07/01 00:23:27;;;;;;;3.00;1.77;;;17.50;99.90;;;;;;4924874;28;20146;-75
2022/07/01 00:25:53;;;;;;;4.68;1.40;;;16.00;99.90;;;;;;4912804;29;20836;-75
2022/07/01 00:28:19;;;;;;;1.30;1.17;;;16.00;99.90;;;;;;4919566;29;20051;-75
2022/07/01 00:30:45;;;;;;;1.48;1.30;;;16.00;99.90;;;;;;4926360;29;20046;-75
2022/07/01 00:33:10;;;;;;;2.88;1.08;;;15.90;99.90;;;;;;4919714;29;20481;-75
2022/07/01 00:35:36;;;;;;;4.03;1.27;;;16.00;99.90;;;;;;4917196;29;20051;-75
2022/07/01 00:38:02;;;;;;;3.00;1.00;;;16.00;99.90;;;;;;4913922;29;20054;-75
2022/07/01 00:40:28;;;;;;;4.60;1.33;;;16.00;99.90;;;;;;4918020;29;20138;-75
2022/07/01 00:42:54;;;;;;;2.08;0.88;;;16.00;99.90;;;;;;4916531;29;20043;-75
2022/07/01 00:45:19;;;;;;;1.05;1.05;;;16.10;99.90;;;;;;4922189;29;20087;-75
2022/07/01 00:47:45;;;;;;;1.88;1.67;;;16.00;99.90;;;;;;4912986;28;20362;-75
2022/07/01 00:50:13;;;;;;;2.35;1.08;;;16.00;99.90;;;;;;4917157;29;20047;-75
2022/07/01 00:52:40;;;;;;;0.82;0.80;;;16.00;99.90;;;;;;4912837;29;20498;-75
2022/07/01 00:55:09;;;;;;;4.07;0.90;;;16.00;99.90;;;;;;4919299;29;20051;-74
2022/07/01 00:57:37;;;;;;;1.30;1.20;;;16.00;99.90;;;;;;4911021;29;20048;-75
2022/07/01 01:00:12;;;;;;;1.05;0.90;;;16.00;99.90;;;;;;4912861;29;20144;-75
2022/07/01 01:02:38;;;;;;;1.80;0.90;;;16.00;99.90;;;;;;4914254;29;20052;-75
2022/07/01 01:05:06;;;;;;;0.70;0.70;;;15.90;99.90;;;;;;4901486;29;20056;-75
2022/07/01 01:07:32;;;;;;;1.92;1.38;;;15.90;99.90;;;;;;4908086;29;20043;-75
2022/07/01 01:10:02;;;;;;;1.38;1.15;;;16.00;99.90;;;;;;4905381;29;20055;-75
2022/07/01 01:12:28;;;;;;;1.25;1.20;;;15.90;99.90;;;;;;4911342;29;20059;-75
2022/07/01 01:14:56;;;;;;;3.03;1.10;;;15.90;99.90;;;;;;4915612;29;20059;-75
2022/07/01 01:17:24;;;;;;;4.20;1.25;;;16.00;99.90;;;;;;4908904;29;20127;-75
2022/07/01 01:19:51;;;;;;;2.42;1.13;;;15.90;99.90;;;;;;4912189;29;20048;-75
2022/07/01 01:22:17;;;;;;;2.20;1.20;;;15.90;99.90;;;;;;4915023;29;20127;-75
2022/07/01 01:24:45;;;;;;;2.40;0.88;;;15.90;99.90;;;;;;4914650;29;20122;-75
2022/07/01 01:27:11;;;;;;;2.50;1.08;;;15.90;99.90;;;;;;4915879;29;20955;-75
2022/07/01 01:29:37;;;;;;;1.05;0.90;;;15.90;99.90;;;;;;4915769;29;20062;-75
2022/07/01 01:32:05;;;;;;;1.13;1.02;;;15.90;99.90;;;;;;4918358;29;20054;-74
2022/07/01 01:34:32;;;;;;;0.60;0.60;;;15.80;99.90;;;;;;4917529;29;20135;-75
2022/07/01 01:36:58;;;;;;;0.80;0.80;;;15.80;99.90;;;;;;4926558;28;20051;-75
2022/07/01 01:39:24;;;;;;;0.80;0.68;;;15.90;99.90;;;;;;4915167;29;20110;-75
2022/07/01 01:41:50;;;;;;;2.58;0.95;;;15.90;99.90;;;;;;4917939;29;20048;-75
2022/07/01 01:44:16;;;;;;;1.85;0.88;;;15.80;99.90;;;;;;4920194;29;20110;-75
2022/07/01 01:46:42;;;;;;;0.80;0.80;;;15.80;99.90;;;;;;4916218;29;20040;-75
2022/07/01 01:49:08;;;;;;;0.70;0.70;;;15.80;99.90;;;;;;4915080;29;20571;-75
2022/07/01 01:51:34;;;;;;;1.00;0.82;;;15.80;99.90;;;;;;4915552;29;20047;-75
2022/07/01 01:54:00;;;;;;;1.35;0.60;;;15.90;99.90;;;;;;4914909;29;20047;-75
2022/07/01 01:56:26;;;;;;;0.60;0.60;;;15.80;99.90;;;;;;4918342;29;20138;-75
2022/07/01 01:58:52;;;;;;;0.70;0.70;;;15.90;99.90;;;;;;4927071;29;20051;-75
2022/07/01 02:01:19;;;;;;;0.85;0.80;;;15.90;99.90;;;;;;4914448;29;20086;-75
2022/07/01 02:03:46;;;;;;;2.15;0.90;;;15.80;99.90;;;;;;4917055;29;20051;-75
2022/07/01 02:06:14;;;;;;;1.00;0.75;;;15.80;99.90;;;;;;4923770;28;20047;-74
2022/07/01 02:08:41;;;;;;;0.93;0.90;;;15.80;99.90;;;;;;4924095;29;20058;-75
2022/07/01 02:11:08;;;;;;;1.83;0.93;;;15.80;99.90;;;;;;4903475;29;20061;-75
2022/07/01 02:13:34;;;;;;;3.35;0.98;;;15.80;99.90;;;;;;4917688;29;20138;-75
2022/07/01 02:16:00;;;;;;;1.15;1.10;;;15.80;99.90;;;;;;4909133;29;20143;-75
2022/07/01 02:18:26;;;;;;;1.23;1.10;;;15.80;99.90;;;;;;4918717;29;20062;-75
2022/07/01 02:20:52;;;;;;;2.17;1.20;;;15.80;99.90;;;;;;4916533;29;20528;-75
2022/07/01 02:23:18;;;;;;;1.27;1.10;;;15.70;99.90;;;;;;4921354;29;20051;-75
2022/07/01 02:25:43;;;;;;;1.67;1.30;;;15.70;99.90;;;;;;4920483;29;20107;-75
2022/07/01 02:28:09;;;;;;;1.85;1.25;;;15.70;99.90;;;;;;4919755;29;20143;-75
2022/07/01 02:30:36;;;;;;;1.30;1.20;;;15.60;99.90;;;;;;4917336;29;20662;-75
2022/07/01 02:33:05;;;;;;;2.17;1.40;;;15.70;99.90;;;;;;4919926;29;20063;-75
2022/07/01 02:35:37;;;;;;;3.65;1.40;;;15.70;99.90;;;;;;4920157;29;20048;-75
2022/07/01 02:38:04;;;;;;;1.60;1.20;;;15.70;99.90;;;;;;4912755;29;20043;-75
2022/07/01 02:40:30;;;;;;;2.63;1.65;;;15.70;99.90;;;;;;4911995;29;20049;-75
2022/07/01 02:42:56;;;;;;;1.60;1.30;;;15.70;99.90;;;;;;4905496;29;20150;-75
2022/07/01 02:45:24;;;;;;;4.35;1.40;;;15.70;99.90;;;;;;4904237;29;20052;-75
2022/07/01 02:47:50;;;;;;;2.33;1.50;;;15.60;99.90;;;;;;4909091;29;20810;-75
2022/07/01 02:50:18;;;;;;;2.13;1.42;;;15.60;99.90;;;;;;4912480;29;20052;-75
2022/07/01 02:52:44;;;;;;;2.05;1.13;;;15.60;99.90;;;;;;4913706;29;20074;-75
2022/07/01 02:55:12;;;;;;;2.75;1.13;;;15.50;99.90;;;;;;4906789;29;20051;-75
2022/07/01 02:57:38;;;;;;;3.47;1.52;;;15.50;99.90;;;;;;4916831;29;20551;-75
2022/07/01 03:00:06;;;;;;;1.63;1.50;;;15.50;99.90;;;;;;4921492;29;20048;-74
2022/07/01 03:02:33;;;;;;;2.28;1.48;;;15.50;99.90;;;;;;4911503;29;20048;-75
2022/07/01 03:04:58;;;;;;;1.52;1.30;;;15.40;99.90;;;;;;4914703;29;20082;-74
2022/07/01 03:07:24;;;;;;;1.58;1.42;;;15.40;99.90;;;;;;4903507;29;20131;-75
2022/07/01 03:09:50;;;;;;;3.35;1.60;;;15.40;99.90;;;;;;4914784;29;20036;-75
2022/07/01 03:12:25;;;;;;;1.65;1.50;;;15.40;99.90;;;;;;4921492;29;20494;-74
2022/07/01 03:14:58;;;;;;;2.50;1.83;;;15.40;99.90;;;;;;4914025;29;20140;-74
2022/07/01 03:17:26;;;;;;;5.07;2.10;;;15.30;99.90;;;;;;4920295;29;20053;-75
2022/07/01 03:19:52;;;;;;;1.67;1.50;;;15.30;99.90;;;;;;4888362;29;20060;-75
2022/07/01 03:22:23;;;;;;;1.30;1.20;;;15.30;99.90;;;;;;4918161;29;20134;-74
2022/07/01 03:24:50;;;;;;;2.72;1.63;;;15.30;99.90;;;;;;4908450;29;20092;-75
2022/07/01 03:27:17;;;;;;;2.65;1.85;;;15.30;99.90;;;;;;4919227;29;20184;-74
2022/07/01 03:29:43;;;;;;;1.80;1.70;;;15.30;99.90;;;;;;4916348;29;20059;-75
2022/07/01 03:32:10;;;;;;;2.38;1.92;;;15.30;99.90;;;;;;4915274;29;20641;-75
2022/07/01 03:34:40;;;;;;;2.22;1.80;;;15.30;99.90;;;;;;4902179;29;21080;-74
2022/07/01 03:37:07;;;;;;;1.90;1.77;;;15.20;99.90;;;;;;4911359;29;20055;-75
2022/07/01 03:39:34;;;;;;;3.33;2.00;;;15.30;99.90;;;;;;4917754;29;20500;-74
2022/07/01 03:42:00;;;;;;;2.95;2.28;;;15.30;99.90;;;;;;4925888;29;20047;-75
2022/07/01 03:44:25;;;;;;;4.57;1.73;;;15.30;99.90;;;;;;4919384;29;21103;-75
2022/07/01 03:46:51;;;;;;;6.10;1.90;;;15.30;99.90;;;;;;4922863;28;20132;-75
2022/07/01 03:49:18;;;;;;;2.25;1.83;;;15.30;99.90;;;;;;4914377;29;20052;-75
2022/07/01 03:51:43;;;;;;;4.63;2.10;;;15.30;99.90;;;;;;4906932;29;20051;-75
2022/07/01 03:56:53;;;;;;;3.08;2.42;;;15.40;99.90;;;;;;4914383;29;20559;-75
2022/07/01 03:59:19;;;;;;;4.80;2.22;;;15.40;99.90;;;;;;4919645;28;20056;-75
2022/07/01 04:01:44;;;;;;;3.78;2.53;;;15.30;99.90;;;;;;4909573;29;20064;-75
2022/07/01 04:04:10;;;;;;;3.58;1.95;;;15.40;99.90;;;;;;4915555;28;20056;-75
2022/07/01 04:06:36;;;;;;;8.18;2.53;;;15.30;99.90;;;;;;4919154;29;20055;-76
2022/07/01 04:09:03;;;;;;;4.10;2.40;;;15.40;99.90;;;;;;4914573;29;20055;-75
2022/07/01 04:11:29;;;;;;;3.67;2.50;;;15.40;99.90;;;;;;4914089;29;20040;-75
2022/07/01 04:13:54;;;;;;;3.13;2.50;;;15.40;99.90;;;;;;4906150;29;20048;-74
2022/07/01 04:16:20;;;;;;;3.03;2.53;;;15.40;99.90;;;;;;4910437;29;20107;-74
2022/07/01 04:18:47;;;;;;;3.95;2.70;;;15.40;99.90;;;;;;4910951;29;20502;-74
2022/07/01 04:23:57;;;;;;;3.42;3.05;;;15.40;99.90;;;;;;4915356;29;20126;-74
2022/07/01 04:26:24;;;;;;;8.40;3.88;;;15.40;99.90;;;;;;4915887;29;20059;-74
2022/07/01 04:28:54;;;;;;;5.75;3.88;;;15.40;99.90;;;;;;4912156;29;20129;-74
2022/07/01 04:31:20;;;;;;;6.72;4.40;;;15.40;99.90;;;;;;4909173;29;20051;-75
2022/07/01 04:33:49;;;;;;;4.55;3.63;;;15.40;99.90;;;;;;4913443;29;20134;-75
2022/07/01 04:36:16;;;;;;;8.57;4.22;;;15.50;99.90;;;;;;4918134;28;20047;-75
2022/07/01 04:38:41;;;;;;;6.55;4.10;;;16.10;99.90;;;;;;4910777;29;20051;-75
2022/07/01 04:43:51;;;;;;;5.93;4.70;;;15.50;99.90;;;;;;4904722;29;20048;-75
2022/07/01 04:46:17;;;;;;;5.63;4.90;;;15.60;99.90;;;;;;4915758;29;20372;-74
2022/07/01 04:48:43;;;;;;;6.55;4.55;;;15.60;99.90;;;;;;4911091;28;20570;-75
2022/07/01 04:51:08;;;;;;;8.65;5.68;;;15.60;99.90;;;;;;4905795;29;20416;-75
2022/07/01 04:53:34;;;;;;;7.40;5.85;;;15.60;99.90;;;;;;4920082;29;20131;-76
2022/07/01 04:56:00;;;;;;;9.05;5.85;;;15.70;99.90;;;;;;4909259;29;20040;-75
2022/07/01 04:58:26;;;;;;;9.65;6.03;;;15.60;99.90;;;;;;4911942;29;20792;-75
2022/07/01 05:00:52;;;;;;;11.52;7.18;;;15.60;99.90;;;;;;4908787;29;20053;-75
2022/07/01 05:03:18;;;;;;;11.95;7.80;;;15.70;99.90;;;;;;4917647;28;20621;-75
2022/07/01 05:05:44;;;;;;;11.25;8.45;;;15.70;99.90;;;;;;4914440;29;20118;-74
2022/07/01 05:08:10;;;;;;;14.38;8.73;;;15.70;99.90;;;;;;4908154;29;20042;-75
2022/07/01 05:10:36;;;;;;;12.23;8.60;;;15.70;99.90;;;;;;4905307;29;20071;-75
2022/07/01 05:13:01;;;;;;;14.18;9.32;;;15.70;99.90;;;;;;4907559;29;20044;-75
2022/07/01 05:15:27;;;;;;;14.75;10.30;;;15.70;99.90;;;;;;4904366;29;20071;-74
2022/07/01 05:23:22;;;;;;;15.38;10.65;;;15.80;99.90;;;;;;4905878;29;20070;-75
2022/07/01 05:25:47;;;;;;;18.90;11.40;;;15.80;99.90;;;;;;4905822;29;20071;-75
2022/07/01 05:28:13;;;;;;;22.98;12.23;;;15.80;99.90;;;;;;4911318;29;20151;-75
2022/07/01 05:30:39;;;;;;;17.20;11.48;;;15.80;99.90;;;;;;4905742;29;20382;-74
2022/07/01 05:33:04;;;;;;;17.70;11.55;;;15.90;99.90;;;;;;4913507;28;20047;-75
2022/07/01 05:35:30;;;;;;;14.43;10.10;;;15.90;99.90;;;;;;4911503;29;20055;-75
2022/07/01 05:37:56;;;;;;;15.85;11.27;;;16.00;99.90;;;;;;4909501;29;20800;-74
2022/07/01 05:40:22;;;;;;;17.67;10.80;;;16.10;99.90;;;;;;4907993;29;20048;-76
2022/07/01 05:42:48;;;;;;;21.60;13.63;;;16.10;99.90;;;;;;4910215;29;20158;-75
2022/07/01 05:45:14;;;;;;;19.15;12.35;;;16.10;99.90;;;;;;4909274;29;20054;-76
2022/07/01 05:47:40;;;;;;;18.13;13.02;;;16.20;99.90;;;;;;4905176;29;20051;-75
2022/07/01 05:50:06;;;;;;;24.00;12.82;;;16.20;99.90;;;;;;4907073;29;20056;-75
2022/07/01 05:52:32;;;;;;;21.95;13.63;;;16.20;99.90;;;;;;4913138;29;20960;-75
2022/07/01 05:54:58;;;;;;;22.20;13.77;;;16.20;99.90;;;;;;4908143;29;20083;-75
2022/07/01 05:57:24;;;;;;;18.90;11.95;;;16.30;99.90;;;;;;4908053;29;20964;-75
2022/07/01 05:59:49;;;;;;;23.25;13.23;;;16.30;99.90;;;;;;4904279;29;20063;-75
2022/07/01 06:02:15;;;;;;;21.73;14.10;;;16.30;99.90;;;;;;4910866;29;20155;-75
2022/07/01 06:04:43;;;;;;;20.08;13.50;;;16.40;99.90;;;;;;4909116;29;20040;-75
2022/07/01 06:07:10;;;;;;;22.75;14.43;;;16.40;99.90;;;;;;4907643;29;20044;-75
2022/07/01 06:09:36;;;;;;;23.02;15.55;;;16.50;99.90;;;;;;4906954;29;20056;-75
2022/07/01 06:12:03;;;;;;;21.02;12.23;;;16.60;99.90;;;;;;4912148;29;20752;-76
2022/07/01 06:14:29;;;;;;;24.48;14.75;;;16.70;99.90;;;;;;4914615;29;21119;-79
2022/07/01 06:16:55;;;;;;;18.60;14.43;;;16.70;99.90;;;;;;4916043;29;20051;-79
2022/07/01 06:19:20;;;;;;;23.67;15.20;;;16.70;99.90;;;;;;4915176;29;20057;-80
2022/07/01 06:21:46;;;;;;;24.30;15.95;;;16.80;99.90;;;;;;4913749;29;20091;-79
2022/07/01 06:24:12;;;;;;;26.75;15.20;;;16.80;99.90;;;;;;4908944;29;20559;-80
2022/07/01 06:26:38;;;;;;;23.25;14.93;;;16.80;99.90;;;;;;4912026;29;20051;-79
2022/07/01 06:29:04;;;;;;;23.52;15.07;;;16.80;99.90;;;;;;4895380;29;20167;-75
2022/07/01 06:31:29;;;;;;;23.02;12.68;;;16.80;99.90;;;;;;4915639;29;20051;-75
2022/07/01 06:33:55;;;;;;;22.65;15.00;;;16.90;99.90;;;;;;4907597;29;20911;-75
2022/07/01 06:36:21;;;;;;;25.00;15.77;;;16.90;99.90;;;;;;4914976;29;20052;-75
2022/07/01 06:38:47;;;;;;;24.80;14.63;;;16.90;99.90;;;;;;4915584;29;20078;-75
2022/07/01 06:41:28;;;;;;;21.02;13.55;;;17.10;99.90;;;;;;4912795;29;20590;-75
2022/07/01 06:44:01;;;;;;;23.52;14.40;;;17.10;99.90;;;;;;4913750;29;20102;-73
2022/07/01 06:46:29;;;;;;;23.25;15.95;;;17.20;99.90;;;;;;4916796;29;20048;-76
2022/07/01 06:48:55;;;;;;;25.67;16.20;;;17.20;99.90;;;;;;4912187;29;20043;-75
2022/07/01 06:51:22;;;;;;;21.85;14.80;;;17.20;99.90;;;;;;4911914;29;20564;-75
2022/07/01 06:53:49;;;;;;;25.30;14.95;;;17.30;99.90;;;;;;4912300;29;20090;-75
2022/07/01 06:56:16;;;;;;;21.00;13.45;;;17.50;99.90;;;;;;4916243;29;20090;-74
2022/07/01 06:58:42;;;;;;;24.58;14.80;;;17.60;99.90;;;;;;4913115;29;20047;-75
2022/07/01 07:01:09;;;;;;;22.48;15.25;;;17.70;99.90;;;;;;4913255;29;20051;-75
2022/07/01 07:03:35;;;;;;;20.10;13.80;;;17.80;99.90;;;;;;4904175;29;20048;-75
2022/07/01 07:06:01;;;;;;;21.48;14.00;;;18.00;99.90;;;;;;4906411;29;20106;-75
2022/07/01 07:08:28;;;;;;;26.50;16.33;;;17.80;99.90;;;;;;4918320;29;20075;-75
2022/07/01 07:10:54;;;;;;;20.95;14.27;;;17.90;99.90;;;;;;4916530;29;20050;-75
2022/07/01 07:13:19;;;;;;;24.05;16.88;;;17.80;99.90;;;;;;4919251;29;20052;-75
2022/07/01 07:15:45;;;;;;;21.65;14.50;;;17.80;99.90;;;;;;4912813;29;20758;-75
2022/07/01 07:18:11;;;;;;;18.10;14.65;;;17.40;99.90;;;;;;4908627;29;20483;-76
2022/07/01 07:20:37;;;;;;;16.48;12.48;;;17.70;99.90;;;;;;4922617;29;20056;-75
2022/07/01 07:23:03;;;;;;;18.42;13.35;;;17.70;99.90;;;;;;4912563;29;20674;-75
2022/07/01 07:25:29;;;;;;;20.90;13.95;;;17.70;99.90;;;;;;4910888;29;20115;-73
2022/07/01 07:27:55;;;;;;;19.88;12.93;;;17.70;99.90;;;;;;4910935;29;20162;-75
2022/07/01 07:30:21;;;;;;;18.75;12.63;;;17.60;99.90;;;;;;4919841;29;20057;-75
2022/07/01 07:32:47;;;;;;;19.85;13.23;;;17.60;99.90;;;;;;4923081;29;20416;-75
2022/07/01 07:35:13;;;;;;;20.05;13.98;;;17.60;99.90;;;;;;4930363;29;20158;-75
2022/07/01 07:37:39;;;;;;;19.67;14.40;;;17.60;99.90;;;;;;4925635;29;20039;-75
2022/07/01 07:40:09;;;;;;;21.30;14.48;;;17.60;99.90;;;;;;4911737;28;20048;-75
2022/07/01 07:42:34;;;;;;;15.50;12.30;;;17.60;99.90;;;;;;4921567;29;20130;-75
2022/07/01 07:45:01;;;;;;;18.58;13.63;;;17.50;99.90;;;;;;4920172;29;20051;-75
2022/07/01 07:47:26;;;;;;;21.17;14.55;;;17.50;99.90;;;;;;4927031;29;20054;-76
2022/07/01 07:49:52;;;;;;;20.33;12.88;;;17.50;99.90;;;;;;4912222;29;20455;-75
2022/07/01 07:52:18;;;;;;;18.05;12.68;;;17.50;99.90;;;;;;4915215;29;20051;-76
2022/07/01 07:54:43;;;;;;;15.77;11.98;;;17.40;99.90;;;;;;4925552;29;20055;-76
2022/07/01 07:57:09;;;;;;;19.75;13.77;;;17.50;99.90;;;;;;4923625;29;20078;-76
2022/07/01 07:59:35;;;;;;;17.50;12.85;;;17.50;99.90;;;;;;4922132;29;20047;-76
2022/07/01 08:02:01;;;;;;;22.60;12.52;;;17.60;99.90;;;;;;4919783;29;20056;-75
2022/07/01 08:04:27;;;;;;;17.85;12.80;;;16.80;99.90;;;;;;4920695;29;20134;-75
2022/07/01 08:06:53;;;;;;;18.27;12.27;;;17.70;99.90;;;;;;4910763;29;20869;-75
2022/07/01 08:09:18;;;;;;;19.08;13.40;;;17.80;99.90;;;;;;4906066;29;20083;-75
2022/07/01 08:11:44;;;;;;;15.77;11.98;;;18.00;99.90;;;;;;4916817;29;20079;-76
2022/07/01 08:14:10;;;;;;;18.55;13.30;;;18.20;99.90;;;;;;4919269;29;20170;-76
2022/07/01 08:16:36;;;;;;;19.73;13.07;;;18.30;99.90;;;;;;4915247;29;20143;-76
2022/07/01 08:19:02;;;;;;;17.10;12.20;;;18.30;99.90;;;;;;4915071;29;20231;-75
2022/07/01 08:21:29;;;;;;;17.00;11.75;;;18.40;99.90;;;;;;4911388;29;20492;-75
2022/07/01 08:23:55;;;;;;;13.50;12.18;;;18.40;99.90;;;;;;4918605;29;20052;-76
2022/07/01 08:26:20;;;;;;;17.38;13.10;;;18.40;99.90;;;;;;4905153;29;20071;-75
2022/07/01 08:28:46;;;;;;;12.75;10.20;;;18.60;99.90;;;;;;4905301;29;20107;-76
2022/07/01 08:31:13;;;;;;;17.17;10.35;;;18.60;99.90;;;;;;4917210;29;20085;-76
2022/07/01 08:33:39;;;;;;;14.02;10.15;;;18.70;99.90;;;;;;4915853;29;20047;-76
2022/07/01 08:36:05;;;;;;;14.30;10.65;;;18.70;99.90;;;;;;4915488;29;20051;-76
2022/07/01 08:38:32;;;;;;;12.20;9.65;;;18.80;99.90;;;;;;4906516;29;20060;-75
2022/07/01 08:40:58;;;;;;;13.80;10.52;;;18.90;99.90;;;;;;4910369;29;20055;-76
2022/07/01 08:43:23;;;;;;;11.93;9.23;;;19.00;99.90;;;;;;4929113;29;20075;-76
2022/07/01 08:45:51;;;;;;;19.40;10.80;;;19.10;99.90;;;;;;4919654;29;20056;-76
2022/07/01 08:48:17;;;;;;;13.98;9.57;;;19.20;99.90;;;;;;4926050;29;20056;-76
2022/07/01 08:50:42;;;;;;;12.98;7.93;;;19.50;99.90;;;;;;4925254;29;20059;-76
2022/07/01 08:53:10;;;;;;;12.80;8.75;;;20.00;99.90;;;;;;4918273;28;20636;-76
2022/07/01 08:56:40;;;;;;;10.63;8.18;;;20.40;99.90;;;;;;4921205;29;20056;-76
2022/07/01 08:58:24;;;;;;;10.95;7.40;;;20.70;99.90;;;;;;4926245;29;20101;-76
2022/07/01 09:00:49;;;;;;;12.02;7.05;;;20.90;99.90;;;;;;4923996;28;20050;-76
2022/07/01 09:03:15;;;;;;;13.80;6.97;;;21.00;99.90;;;;;;4921350;29;20052;-75
2022/07/01 09:05:50;;;;;;;9.25;6.53;;;20.90;99.90;;;;;;4922266;29;20043;-77
2022/07/01 09:08:16;;;;;;;9.15;6.50;;;20.80;99.90;;;;;;4912346;29;20139;-76
2022/07/01 09:10:41;;;;;;;10.15;7.43;;;21.10;99.90;;;;;;4921394;29;20105;-76
2022/07/01 09:13:10;;;;;;;8.40;6.88;;;21.00;99.90;;;;;;4921296;29;20051;-76
2022/07/01 09:15:37;;;;;;;7.80;6.45;;;21.50;99.90;;;;;;4912587;29;20083;-76
2022/07/01 09:18:14;;;;;;;8.30;5.03;;;22.10;99.90;;;;;;4923157;29;20040;-76
2022/07/01 09:20:45;;;;;;;7.00;6.13;;;22.60;99.90;;;;;;4922467;29;20121;-76
2022/07/01 09:23:13;;;;;;;7.50;4.55;;;22.50;99.90;;;;;;4925412;29;20048;-76
2022/07/01 09:25:48;;;;;;;8.73;5.65;;;22.90;99.90;;;;;;4922816;29;20771;-76
2022/07/01 09:28:16;;;;;;;6.30;5.45;;;22.70;99.50;;;;;;4915984;29;20067;-77
2022/07/01 09:30:45;;;;;;;11.38;5.30;;;23.20;99.90;;;;;;4919860;29;20051;-76
2022/07/01 09:33:14;;;;;;;7.82;5.57;;;23.80;99.90;;;;;;4910178;29;20056;-76
2022/07/01 09:35:42;;;;;;;8.45;4.03;;;23.30;99.90;;;;;;4918565;29;20082;-76
2022/07/01 09:38:12;;;;;;;10.15;5.32;;;23.80;99.90;;;;;;4919901;29;20039;-76
2022/07/01 09:40:57;;;;;;;5.60;4.35;;;23.70;99.90;;;;;;4920808;29;20173;-76
2022/07/01 09:43:25;;;;;;;5.55;4.50;;;23.20;96.40;;;;;;4905857;29;20052;-76
2022/07/01 09:45:53;;;;;;;5.47;4.65;;;22.90;99.90;;;;;;4921640;29;20054;-76
2022/07/01 09:48:20;;;;;;;6.32;5.35;;;22.60;99.90;;;;;;4924310;29;20390;-76
2022/07/01 09:50:46;;;;;;;7.28;5.95;;;22.20;99.90;;;;;;4919410;29;20062;-76
2022/07/01 09:53:13;;;;;;;8.98;5.15;;;22.10;99.90;;;;;;4921676;29;20051;-76
2022/07/01 09:55:39;;;;;;;6.85;5.57;;;22.00;99.90;;;;;;4919815;29;20142;-75
2022/07/01 09:58:06;;;;;;;8.43;5.05;;;21.90;99.90;;;;;;4918046;29;20846;-76
2022/07/01 10:00:32;;;;;;;5.07;4.05;;;21.80;99.90;;;;;;4905899;29;20453;-76
2022/07/01 10:03:00;;;;;;;4.47;3.55;;;21.90;99.90;;;;;;4919009;29;20134;-76
2022/07/01 10:05:28;;;;;;;5.45;4.10;;;22.10;99.90;;;;;;4927580;29;20130;-76
2022/07/01 10:08:21;;;;;;;6.38;4.15;;;22.20;99.90;;;;;;4910601;29;20040;-76
2022/07/01 10:11:24;;;;;;;6.70;4.18;;;22.50;98.50;;;;;;4910205;29;20079;-76
2022/07/01 10:13:51;;;;;;;6.60;4.00;;;22.00;98.70;;;;;;4912629;29;20103;-76
2022/07/01 10:16:17;;;;;;;5.65;4.18;;;21.90;99.90;;;;;;4917060;29;20066;-76
2022/07/01 10:18:43;;;;;;;6.63;4.53;;;21.80;99.90;;;;;;4916791;29;20052;-75
2022/07/01 10:21:11;;;;;;;7.78;5.43;;;21.80;99.90;;;;;;4921807;29;20130;-76
2022/07/01 10:23:42;;;;;;;5.43;4.20;;;22.00;99.90;;;;;;4915497;29;20079;-75
2022/07/01 10:26:08;;;;;;;8.77;4.25;;;22.10;99.90;;;;;;4919340;29;20066;-79
2022/07/01 10:28:43;;;;;;;6.03;3.63;;;22.60;99.90;;;;;;4919141;29;20239;-75
2022/07/01 10:31:17;;;;;;;4.97;3.50;;;23.20;99.90;;;;;;4919200;29;20617;-76
2022/07/01 10:33:56;;;;;;;5.32;4.50;;;23.30;97.80;;;;;;4910326;29;20497;-73
2022/07/01 10:36:22;;;;;;;6.85;3.50;;;23.10;98.90;;;;;;4903863;29;20056;-75
2022/07/01 10:39:10;;;;;;;4.53;3.40;;;23.00;99.90;;;;;;4915827;29;20102;-73
2022/07/01 10:41:53;;;;;;;4.93;3.42;;;22.50;96.20;;;;;;4919939;29;20066;-74
2022/07/01 10:44:20;;;;;;;8.40;4.45;;;22.30;98.50;;;;;;4921768;29;20190;-75
2022/07/01 10:46:58;;;;;;;6.20;4.20;;;22.00;99.90;;;;;;4909109;29;20059;-74
2022/07/01 10:49:35;;;;;;;6.80;4.28;;;21.80;99.90;;;;;;4919836;29;20565;-75
2022/07/01 10:52:07;;;;;;;5.46;4.74;;;21.80;99.90;;;;;;4569756;29;10000955;-74
2022/07/01 10:54:36;;;;;;;5.13;3.83;;;22.30;99.90;;;;;;4904542;29;20044;-75
2022/07/01 10:57:19;;;;;;;6.13;3.75;;;22.90;99.90;;;;;;4902360;29;20232;-75
2022/07/01 10:59:54;;;;;;;5.35;3.30;;;23.30;99.50;;;;;;4911870;29;20054;-75
2022/07/01 11:02:31;;;;;;;5.18;3.72;;;23.30;96.90;;;;;;4908438;29;20139;-75
2022/07/01 11:05:02;;;;;;;4.20;3.63;;;22.80;96.00;;;;;;4911966;29;20495;-78
2022/07/01 11:07:31;;;;;;;3.55;3.25;;;22.60;99.90;;;;;;4901612;29;20036;-74
2022/07/01 11:09:58;;;;;;;3.78;3.15;;;22.70;97.70;;;;;;4911041;29;20052;-74
2022/07/01 11:12:24;;;;;;;4.78;3.00;;;22.80;99.80;;;;;;4911124;29;20056;-74
2022/07/01 11:14:51;;;;;;;5.05;3.22;;;23.60;99.20;;;;;;4913301;29;20462;-73
2022/07/01 11:17:18;;;;;;;3.92;3.40;;;22.90;99.20;;;;;;4914804;29;20126;-74
2022/07/01 11:19:53;;;;;;;7.05;3.55;;;23.10;97.70;;;;;;4908594;29;20847;-74
2022/07/01 11:22:24;;;;;;;6.60;3.45;;;23.50;99.00;;;;;;4910327;29;20488;-74
2022/07/01 11:24:58;;;;;;;5.18;3.38;;;23.60;98.70;;;;;;4904250;29;20189;-74
2022/07/01 11:27:27;;;;;;;3.72;3.22;;;23.50;96.80;;;;;;4906730;29;20191;-75
2022/07/01 11:30:04;;;;;;;5.47;3.30;;;23.60;97.70;;;;;;4916525;29;20111;-73
2022/07/01 11:32:36;;;;;;;3.75;3.45;;;23.70;96.90;;;;;;4912455;29;20082;-73
2022/07/01 11:39:21;;;;;;;4.45;2.55;;;23.40;96.60;;;;;;4911595;29;20818;-74
2022/07/01 11:40:36;;;;;;;8.60;2.30;;;23.00;97.60;;;;;;4922810;28;20480;-74
2022/07/01 11:43:18;;;;;;;4.28;1.50;;;22.80;97.30;;;;;;4917036;29;20850;-73
2022/07/01 11:45:43;;;;;;;3.25;1.50;;;22.60;95.80;;;;;;4908096;29;20832;-74
2022/07/01 11:48:09;;;;;;;1.45;0.90;;;22.50;97.70;;;;;;4909945;29;20044;-74
2022/07/01 11:50:35;;;;;;;1.98;1.17;;;22.20;97.20;;;;;;4909468;29;20059;-74
2022/07/01 11:53:00;;;;;;;4.10;1.60;;;21.90;98.10;;;;;;4905392;29;20052;-74
2022/07/01 11:55:26;;;;;;;3.38;1.50;;;21.80;98.80;;;;;;4909073;29;20119;-73
2022/07/01 11:57:52;;;;;;;2.22;1.13;;;21.50;98.80;;;;;;4909583;29;20043;-73
2022/07/01 12:00:18;;;;;;;3.78;1.80;;;21.30;98.90;;;;;;4917361;29;20122;-74
2022/07/01 12:02:44;;;;;;;2.13;1.50;;;21.10;99.70;;;;;;4911566;28;20052;-74
2022/07/01 12:05:10;;;;;;;3.63;1.80;;;20.90;99.90;;;;;;4906270;29;20048;-73
2022/07/01 12:07:35;;;;;;;4.72;1.60;;;20.90;99.90;;;;;;4911485;29;20087;-73
2022/07/01 12:10:01;;;;;;;3.13;1.58;;;20.80;99.90;;;;;;4908658;29;20191;-74
2022/07/01 12:12:27;;;;;;;3.53;2.05;;;20.90;99.90;;;;;;4915117;29;20055;-73
2022/07/01 12:14:58;;;;;;;3.13;1.77;;;21.10;99.90;;;;;;4912717;29;20150;-74
2022/07/01 12:17:25;;;;;;;2.03;1.52;;;21.30;99.90;;;;;;4917881;29;20044;-74
2022/07/01 12:19:52;;;;;;;2.80;1.50;;;21.40;99.90;;;;;;4916055;29;20755;-73
2022/07/01 12:22:26;;;;;;;2.80;1.50;;;21.70;99.90;;;;;;4909532;29;20056;-73
2022/07/01 12:25:04;;;;;;;3.17;1.58;;;22.00;99.20;;;;;;4917042;29;20051;-73
2022/07/01 12:27:34;;;;;;;3.50;1.58;;;22.20;99.00;;;;;;4915277;29;20066;-72
2022/07/01 12:30:00;;;;;;;4.03;1.58;;;22.10;97.70;;;;;;4910017;29;20048;-73
2022/07/01 12:32:28;;;;;;;3.67;1.33;;;21.80;98.00;;;;;;4916492;29;20110;-73
2022/07/01 12:34:55;;;;;;;2.40;1.33;;;22.00;99.50;;;;;;4913616;29;20066;-73
2022/07/01 12:37:31;;;;;;;2.85;1.35;;;22.30;98.90;;;;;;4915554;29;20146;-72
2022/07/01 12:40:19;;;;;;;2.78;1.17;;;22.70;95.30;;;;;;4918869;28;20158;-72
2022/07/01 12:42:45;;;;;;;1.13;1.00;;;22.80;94.30;;;;;;4910707;29;20603;-74
2022/07/01 12:45:15;;;;;;;3.17;1.10;;;23.10;96.30;;;;;;4915747;29;20047;-73
2022/07/01 12:47:45;;;;;;;2.42;1.05;;;23.10;95.00;;;;;;4909296;29;20579;-74
2022/07/01 12:50:16;;;;;;;2.88;1.10;;;23.10;94.70;;;;;;4916466;29;20753;-74
2022/07/01 12:53:03;;;;;;;3.33;1.00;;;23.20;95.00;;;;;;4911970;29;20048;-73
2022/07/01 12:55:44;;;;;;;4.75;1.00;;;23.40;93.20;;;;;;4915207;29;20046;-74
2022/07/01 12:58:17;;;;;;;3.53;1.30;;;23.60;92.70;;;;;;4924507;29;20131;-72
2022/07/01 13:00:45;;;;;;;2.00;0.80;;;23.50;91.30;;;;;;4911851;29;20155;-73